Time;durP1;ratioP1;P1;durP2;ratioP2;P2;SDS_P1;SDS_P2;PMS_P1;PMS_P2;Temp;Humidity;BMP_temperature;BMP_pressure;BME280_temperature;BME280_humidity;BME280_pressure;Samples;Min_cycle;Max_cycle;Signal;HPM_P1;HPM_P2
2022/06/15 00:01:12;;;;;;;1.83;1.70;;;20.90;57.00;;;;;;5066005;28;20984;-68
2022/06/15 00:03:38;;;;;;;2.03;1.87;;;20.90;57.10;;;;;;5065514;28;20216;-68
2022/06/15 00:06:05;;;;;;;2.63;1.90;;;20.80;57.10;;;;;;5070621;28;20457;-68
2022/06/15 00:08:31;;;;;;;2.17;1.50;;;20.80;57.10;;;;;;5069762;28;20241;-68
2022/06/15 00:10:57;;;;;;;1.83;1.70;;;20.80;57.10;;;;;;5064782;28;20457;-67
2022/06/15 00:13:22;;;;;;;1.57;1.47;;;20.80;57.10;;;;;;5065205;28;20229;-66
2022/06/15 00:15:49;;;;;;;1.60;1.50;;;20.70;57.10;;;;;;5061073;28;20318;-68
2022/06/15 00:18:15;;;;;;;1.80;1.70;;;20.70;57.10;;;;;;5062964;28;20654;-69
2022/06/15 00:20:41;;;;;;;1.63;1.53;;;20.70;57.10;;;;;;5062451;28;20450;-68
2022/06/15 00:23:07;;;;;;;4.87;1.90;;;20.60;57.10;;;;;;5066295;28;20456;-68
2022/06/15 00:25:32;;;;;;;1.70;1.60;;;20.60;57.10;;;;;;5065072;28;20741;-67
2022/06/15 00:27:58;;;;;;;3.80;1.90;;;20.60;57.10;;;;;;5046028;28;20588;-68
2022/06/15 00:30:24;;;;;;;1.80;1.70;;;20.50;57.10;;;;;;5079264;28;20226;-68
2022/06/15 00:32:50;;;;;;;1.57;1.47;;;20.50;57.20;;;;;;5063761;28;20219;-68
2022/06/15 00:35:17;;;;;;;1.73;1.63;;;20.40;57.30;;;;;;5079070;28;20228;-68
2022/06/15 00:37:43;;;;;;;4.13;1.90;;;20.40;57.30;;;;;;5063423;28;20291;-68
2022/06/15 00:40:09;;;;;;;2.20;1.50;;;20.40;57.20;;;;;;5077942;28;20470;-67
2022/06/15 00:42:35;;;;;;;2.03;1.93;;;20.40;57.20;;;;;;5062766;28;20311;-68
2022/06/15 00:45:02;;;;;;;2.10;1.37;;;20.30;57.20;;;;;;5063367;28;20545;-67
2022/06/15 00:47:32;;;;;;;2.30;2.10;;;20.30;57.30;;;;;;5065798;28;20231;-68
2022/06/15 00:50:07;;;;;;;1.73;1.63;;;20.30;57.50;;;;;;5062090;28;20442;-68
2022/06/15 00:52:47;;;;;;;1.90;1.80;;;20.20;57.50;;;;;;5064150;28;20475;-68
2022/06/15 00:55:19;;;;;;;2.70;1.90;;;20.20;57.50;;;;;;5074914;28;20450;-68
2022/06/15 00:57:45;;;;;;;3.00;2.07;;;20.10;57.70;;;;;;5067118;28;20453;-68
2022/06/15 01:00:12;;;;;;;1.90;1.80;;;20.10;57.70;;;;;;5069442;28;20449;-67
2022/06/15 01:02:39;;;;;;;2.00;1.83;;;20.10;57.70;;;;;;5068242;28;20544;-68
2022/06/15 01:05:18;;;;;;;3.07;1.90;;;20.00;58.00;;;;;;5081012;28;20473;-68
2022/06/15 01:08:02;;;;;;;2.17;1.70;;;20.00;57.90;;;;;;5077505;28;20500;-67
2022/06/15 01:10:27;;;;;;;2.00;1.90;;;20.00;58.00;;;;;;5068244;28;20442;-67
2022/06/15 01:13:17;;;;;;;1.57;1.47;;;19.90;58.10;;;;;;5049772;28;20823;-68
2022/06/15 01:16:22;;;;;;;2.07;1.97;;;19.90;58.50;;;;;;5066047;28;20230;-69
2022/06/15 01:19:12;;;;;;;3.90;1.93;;;19.90;58.10;;;;;;5039462;28;20458;-68
2022/06/15 01:22:00;;;;;;;4.00;1.83;;;19.90;58.20;;;;;;5064396;28;20450;-69
2022/06/15 01:25:01;;;;;;;1.93;1.73;;;19.90;58.20;;;;;;5066286;28;20542;-68
2022/06/15 01:27:47;;;;;;;2.00;1.90;;;19.80;58.20;;;;;;5056427;28;20484;-68
2022/06/15 01:30:22;;;;;;;2.30;2.10;;;19.80;58.30;;;;;;5050205;28;20496;-68
2022/06/15 01:33:03;;;;;;;2.83;1.90;;;19.80;58.40;;;;;;5068805;28;20448;-68
2022/06/15 01:35:37;;;;;;;1.80;1.70;;;19.70;58.50;;;;;;5059574;28;20469;-68
2022/06/15 01:38:21;;;;;;;1.97;1.87;;;19.70;58.50;;;;;;5058972;28;20512;-67
2022/06/15 01:41:02;;;;;;;3.30;2.60;;;19.60;58.50;;;;;;5059983;28;20458;-68
2022/06/15 01:43:33;;;;;;;2.40;2.20;;;19.60;58.60;;;;;;5066548;28;20495;-67
2022/06/15 01:45:59;;;;;;;2.43;1.83;;;19.50;58.80;;;;;;5042777;28;20454;-68
2022/06/15 01:48:27;;;;;;;2.00;1.80;;;19.40;58.70;;;;;;5067602;28;20450;-68
2022/06/15 01:50:58;;;;;;;3.00;2.20;;;19.40;58.80;;;;;;5062585;28;20449;-67
2022/06/15 01:53:36;;;;;;;2.57;2.37;;;19.30;58.90;;;;;;5061477;28;20461;-68
2022/06/15 01:56:33;;;;;;;2.20;1.90;;;19.20;59.00;;;;;;5052665;28;20481;-67
2022/06/15 01:59:09;;;;;;;2.10;1.90;;;19.20;59.20;;;;;;5080783;28;20449;-68
2022/06/15 02:01:43;;;;;;;1.83;1.73;;;19.10;59.30;;;;;;5060173;28;20808;-69
2022/06/15 02:04:48;;;;;;;1.80;1.70;;;19.10;59.40;;;;;;5055905;28;20540;-67
2022/06/15 02:07:31;;;;;;;1.87;1.77;;;19.10;59.40;;;;;;5040700;28;20994;-67
2022/06/15 02:10:05;;;;;;;2.60;2.40;;;19.20;59.30;;;;;;5078043;28;20470;-69
2022/06/15 02:12:44;;;;;;;2.23;2.07;;;19.20;59.20;;;;;;5067399;28;20440;-68
2022/06/15 02:15:12;;;;;;;3.63;2.27;;;19.20;59.20;;;;;;5065097;28;20534;-68
2022/06/15 02:17:44;;;;;;;2.33;2.13;;;19.20;59.60;;;;;;5074820;28;20464;-68
2022/06/15 02:20:17;;;;;;;2.10;2.00;;;19.20;59.20;;;;;;5046940;28;20461;-70
2022/06/15 02:22:45;;;;;;;2.20;2.00;;;19.20;59.20;;;;;;5058194;28;20484;-68
2022/06/15 02:25:17;;;;;;;2.60;2.17;;;19.20;59.20;;;;;;5062941;28;20450;-68
2022/06/15 02:27:45;;;;;;;4.33;2.17;;;19.20;59.20;;;;;;5057854;28;20442;-68
2022/06/15 02:30:19;;;;;;;2.00;1.90;;;19.20;59.20;;;;;;5065416;28;20476;-67
2022/06/15 02:32:49;;;;;;;4.90;2.23;;;19.10;59.20;;;;;;5061432;28;20526;-68
2022/06/15 02:35:17;;;;;;;2.43;2.07;;;19.10;59.20;;;;;;5040075;28;20499;-68
2022/06/15 02:37:44;;;;;;;3.07;2.20;;;19.10;59.30;;;;;;5043161;28;20469;-68
2022/06/15 02:40:15;;;;;;;2.03;1.93;;;19.10;59.30;;;;;;5061102;28;20456;-68
2022/06/15 02:42:41;;;;;;;1.87;1.70;;;19.10;59.70;;;;;;5060733;28;20445;-68
2022/06/15 02:45:23;;;;;;;2.23;2.00;;;19.00;59.30;;;;;;5065694;28;20568;-68
2022/06/15 02:47:52;;;;;;;2.20;2.03;;;19.00;59.40;;;;;;5048970;28;20537;-67
2022/06/15 02:50:21;;;;;;;2.93;2.40;;;18.90;59.70;;;;;;5049826;28;20453;-67
2022/06/15 02:52:58;;;;;;;2.00;1.90;;;18.90;59.70;;;;;;5068674;28;20516;-68
2022/06/15 02:55:25;;;;;;;2.40;2.20;;;18.90;59.80;;;;;;5061877;28;20445;-69
2022/06/15 02:58:01;;;;;;;2.60;2.20;;;18.80;59.90;;;;;;5065766;28;20528;-68
2022/06/15 03:00:32;;;;;;;2.07;1.97;;;18.80;59.90;;;;;;5048807;28;20481;-68
2022/06/15 03:02:57;;;;;;;6.40;2.33;;;18.70;60.20;;;;;;5042328;28;20462;-68
2022/06/15 03:05:23;;;;;;;1.93;1.83;;;18.70;60.40;;;;;;5064690;28;20446;-68
2022/06/15 03:07:49;;;;;;;2.07;1.97;;;18.70;60.20;;;;;;5063221;28;20233;-68
2022/06/15 03:10:15;;;;;;;2.07;1.87;;;18.70;60.50;;;;;;5050926;28;20218;-68
2022/06/15 03:12:41;;;;;;;2.30;1.90;;;18.70;60.40;;;;;;5063744;28;20446;-68
2022/06/15 03:15:08;;;;;;;2.43;2.23;;;18.70;60.50;;;;;;5064247;28;20260;-67
2022/06/15 03:17:35;;;;;;;2.63;1.80;;;18.60;60.60;;;;;;5057162;28;20469;-68
2022/06/15 03:20:06;;;;;;;2.47;2.17;;;18.60;60.60;;;;;;5060472;28;20471;-69
2022/06/15 03:22:33;;;;;;;2.57;2.37;;;18.60;60.70;;;;;;5048341;28;20986;-69
2022/06/15 03:25:00;;;;;;;3.23;2.20;;;18.60;60.80;;;;;;5062812;28;20528;-69
2022/06/15 03:27:26;;;;;;;8.93;2.00;;;18.60;60.70;;;;;;5057549;28;20458;-69
2022/06/15 03:29:53;;;;;;;2.57;2.00;;;18.50;60.90;;;;;;5045335;28;20485;-68
2022/06/15 03:32:23;;;;;;;2.10;1.90;;;18.50;60.90;;;;;;5061761;28;20450;-68
2022/06/15 03:34:54;;;;;;;3.00;2.00;;;18.50;61.30;;;;;;5056947;28;20454;-68
2022/06/15 03:37:20;;;;;;;1.90;1.80;;;18.50;61.30;;;;;;5056460;28;21001;-68
2022/06/15 03:39:47;;;;;;;2.27;2.17;;;18.50;61.20;;;;;;5062928;28;20720;-69
2022/06/15 03:42:20;;;;;;;3.03;2.20;;;18.50;61.50;;;;;;5059122;28;20450;-68
2022/06/15 03:44:47;;;;;;;2.93;1.87;;;18.50;61.40;;;;;;5061380;28;20544;-68
2022/06/15 03:47:17;;;;;;;1.90;1.80;;;18.50;61.40;;;;;;5046843;28;20458;-68
2022/06/15 03:49:53;;;;;;;2.67;1.93;;;18.50;61.30;;;;;;5060413;28;20461;-68
2022/06/15 03:52:23;;;;;;;3.07;2.33;;;18.40;61.40;;;;;;5066892;28;20853;-69
2022/06/15 03:54:49;;;;;;;2.30;2.10;;;18.40;61.50;;;;;;5052719;28;20933;-65
2022/06/15 03:57:17;;;;;;;2.40;2.20;;;18.40;61.40;;;;;;5059130;28;20470;-68
2022/06/15 03:59:44;;;;;;;2.40;2.20;;;18.40;61.40;;;;;;5059189;28;20457;-68
2022/06/15 04:02:35;;;;;;;2.47;2.30;;;18.40;61.50;;;;;;5064127;28;20526;-68
2022/06/15 04:05:04;;;;;;;2.40;2.23;;;18.40;61.60;;;;;;5059444;28;20560;-68
2022/06/15 04:10:14;;;;;;;4.23;2.53;;;18.40;61.60;;;;;;5079496;28;20525;-69
2022/06/15 04:12:45;;;;;;;1.97;1.87;;;18.40;62.30;;;;;;5049822;28;20459;-67
2022/06/15 04:15:12;;;;;;;2.77;2.57;;;18.30;62.20;;;;;;5061279;28;20510;-68
2022/06/15 04:17:44;;;;;;;2.27;2.07;;;18.30;62.10;;;;;;5063391;28;20449;-68
2022/06/15 04:20:33;;;;;;;2.77;2.50;;;18.40;62.40;;;;;;5064211;28;20446;-68
2022/06/15 04:23:06;;;;;;;2.97;2.50;;;18.30;62.20;;;;;;5061433;28;20893;-68
2022/06/15 04:25:37;;;;;;;2.60;2.40;;;18.40;62.50;;;;;;5059138;28;20543;-68
2022/06/15 04:28:05;;;;;;;5.67;1.90;;;18.40;62.80;;;;;;5073110;28;20486;-69
2022/06/15 04:30:31;;;;;;;2.47;2.13;;;18.40;62.90;;;;;;5058969;28;20528;-68
2022/06/15 04:32:58;;;;;;;2.33;2.20;;;18.40;62.70;;;;;;5059848;28;20926;-68
2022/06/15 04:35:30;;;;;;;2.20;2.00;;;18.40;62.50;;;;;;5059977;28;20458;-68
2022/06/15 04:37:58;;;;;;;3.80;2.20;;;18.40;62.40;;;;;;5061251;28;20515;-68
2022/06/15 04:40:30;;;;;;;2.73;2.00;;;18.40;62.20;;;;;;5041925;28;20478;-67
2022/06/15 04:42:56;;;;;;;2.57;2.37;;;18.40;62.20;;;;;;5063796;28;20973;-68
2022/06/15 04:45:22;;;;;;;3.00;2.13;;;18.40;62.70;;;;;;5062561;28;20456;-68
2022/06/15 04:47:58;;;;;;;2.50;2.30;;;18.40;62.60;;;;;;5073285;28;20449;-68
2022/06/15 04:50:25;;;;;;;4.00;2.00;;;18.40;62.90;;;;;;5062495;28;20445;-68
2022/06/15 04:52:53;;;;;;;2.40;2.20;;;18.40;62.90;;;;;;5044392;28;20219;-69
2022/06/15 04:55:21;;;;;;;2.60;2.40;;;18.40;62.70;;;;;;5058672;28;20867;-68
2022/06/15 04:57:48;;;;;;;2.57;2.03;;;18.50;62.70;;;;;;5046765;28;20223;-68
2022/06/15 05:00:18;;;;;;;2.17;2.07;;;18.50;62.90;;;;;;5062256;28;20841;-67
2022/06/15 05:02:45;;;;;;;2.30;1.70;;;18.50;62.90;;;;;;5064315;28;20445;-68
2022/06/15 05:05:14;;;;;;;3.77;1.93;;;18.50;63.20;;;;;;5059203;28;20453;-67
2022/06/15 05:07:41;;;;;;;2.27;2.17;;;18.60;63.30;;;;;;5056228;28;20458;-68
2022/06/15 05:10:10;;;;;;;2.10;2.00;;;18.60;63.40;;;;;;5059199;28;20445;-67
2022/06/15 05:12:36;;;;;;;2.33;1.80;;;18.60;63.70;;;;;;5060524;28;20208;-68
2022/06/15 05:15:05;;;;;;;2.43;2.23;;;18.60;63.60;;;;;;5063757;28;20446;-67
2022/06/15 05:17:31;;;;;;;2.80;2.27;;;18.70;63.90;;;;;;5058076;28;20469;-67
2022/06/15 05:19:57;;;;;;;2.47;2.27;;;18.70;64.20;;;;;;5056863;28;20978;-68
2022/06/15 05:22:26;;;;;;;1.93;1.83;;;18.70;64.30;;;;;;5049182;28;20251;-66
2022/06/15 05:24:54;;;;;;;3.23;2.30;;;18.80;64.60;;;;;;5065628;28;20450;-67
2022/06/15 05:27:20;;;;;;;2.00;1.73;;;18.80;65.20;;;;;;5079380;28;21038;-70
2022/06/15 05:29:51;;;;;;;4.03;2.20;;;18.90;65.00;;;;;;5020762;28;20219;-67
2022/06/15 05:32:19;;;;;;;2.20;2.00;;;18.90;65.10;;;;;;5069266;28;20481;-68
2022/06/15 05:34:45;;;;;;;2.53;2.33;;;19.00;65.70;;;;;;5055137;28;20489;-67
2022/06/15 05:37:11;;;;;;;4.63;1.70;;;19.10;66.30;;;;;;5044418;28;20223;-71
2022/06/15 05:39:38;;;;;;;5.10;2.30;;;19.10;66.00;;;;;;5052569;28;20787;-68
2022/06/15 05:42:04;;;;;;;2.73;2.53;;;19.20;66.50;;;;;;5072750;28;20487;-69
2022/06/15 05:45:12;;;;;;;3.27;2.53;;;19.20;67.00;;;;;;5074684;28;20515;-68
2022/06/15 05:47:19;;;;;;;2.30;2.10;;;19.30;66.50;;;;;;5066235;28;20468;-68
2022/06/15 05:49:53;;;;;;;3.00;2.00;;;19.30;67.00;;;;;;5070054;28;20457;-68
2022/06/15 05:52:26;;;;;;;3.73;2.20;;;19.40;67.40;;;;;;5069864;28;20454;-67
2022/06/15 05:54:52;;;;;;;2.63;2.13;;;19.50;67.70;;;;;;5072152;28;20478;-68
2022/06/15 05:57:21;;;;;;;2.40;2.20;;;19.50;67.40;;;;;;5077743;28;20980;-68
2022/06/15 05:59:47;;;;;;;2.50;2.30;;;19.60;68.40;;;;;;5070095;28;20640;-69
2022/06/15 06:02:15;;;;;;;2.60;2.20;;;19.70;68.00;;;;;;5060706;28;20913;-67
2022/06/15 06:04:41;;;;;;;2.70;1.97;;;19.80;67.80;;;;;;5062343;28;20477;-69
2022/06/15 06:07:09;;;;;;;2.07;1.87;;;19.80;67.40;;;;;;5049829;28;20462;-68
2022/06/15 06:09:35;;;;;;;2.60;2.40;;;19.90;68.20;;;;;;5065616;28;21047;-67
2022/06/15 06:12:01;;;;;;;3.20;2.43;;;19.90;67.70;;;;;;5070290;28;20454;-68
2022/06/15 06:14:27;;;;;;;2.83;2.40;;;20.00;68.50;;;;;;5064736;28;20680;-69
2022/06/15 06:16:52;;;;;;;2.27;2.07;;;20.10;68.20;;;;;;5078643;28;20272;-69
2022/06/15 06:19:18;;;;;;;2.57;2.23;;;20.10;68.50;;;;;;5065073;28;20306;-68
2022/06/15 06:21:44;;;;;;;3.00;2.37;;;20.20;68.50;;;;;;5057108;28;20215;-68
2022/06/15 06:24:11;;;;;;;2.50;2.30;;;20.30;68.70;;;;;;5081118;28;20217;-67
2022/06/15 06:26:37;;;;;;;2.77;2.13;;;20.40;68.70;;;;;;5061527;28;20449;-68
2022/06/15 06:29:04;;;;;;;2.50;2.00;;;20.40;68.20;;;;;;5061123;28;20450;-68
2022/06/15 06:31:30;;;;;;;4.80;2.80;;;20.40;68.30;;;;;;5068626;28;20457;-69
2022/06/15 06:33:56;;;;;;;2.47;2.13;;;20.50;69.70;;;;;;5067905;28;20462;-68
2022/06/15 06:36:40;;;;;;;3.63;2.60;;;20.50;69.30;;;;;;5077982;28;20458;-68
2022/06/15 06:39:13;;;;;;;2.43;2.33;;;20.60;69.30;;;;;;5087195;28;20467;-69
2022/06/15 06:41:39;;;;;;;2.60;2.40;;;20.70;69.60;;;;;;5082871;28;20457;-68
2022/06/15 06:44:05;;;;;;;2.60;2.40;;;20.80;69.40;;;;;;5068358;28;20875;-68
2022/06/15 06:46:32;;;;;;;2.60;2.40;;;20.90;69.80;;;;;;5081432;28;20568;-68
2022/06/15 06:48:58;;;;;;;2.50;2.33;;;21.00;70.00;;;;;;5047532;28;20219;-68
2022/06/15 06:51:25;;;;;;;2.90;2.30;;;21.00;70.90;;;;;;5078346;28;20822;-69
2022/06/15 06:53:51;;;;;;;2.30;2.20;;;21.10;69.80;;;;;;5060518;28;20284;-68
2022/06/15 06:56:17;;;;;;;3.00;2.80;;;21.20;69.70;;;;;;5073013;28;20492;-68
2022/06/15 06:58:43;;;;;;;3.03;2.83;;;21.30;69.90;;;;;;5072552;28;20215;-68
2022/06/15 07:01:08;;;;;;;2.50;2.30;;;21.30;69.80;;;;;;5063999;28;20580;-70
2022/06/15 07:03:34;;;;;;;3.00;2.70;;;21.50;69.40;;;;;;5056958;28;20222;-70
2022/06/15 07:06:03;;;;;;;3.40;2.47;;;21.50;69.70;;;;;;5090852;28;20218;-68
2022/06/15 07:08:29;;;;;;;2.47;2.27;;;21.60;69.30;;;;;;5067605;28;20318;-68
2022/06/15 07:10:55;;;;;;;3.60;2.63;;;21.70;69.40;;;;;;5064992;28;20453;-70
2022/06/15 07:13:20;;;;;;;5.40;2.80;;;21.70;69.40;;;;;;5059873;28;20465;-71
2022/06/15 07:15:46;;;;;;;2.57;2.37;;;21.80;69.50;;;;;;5071411;28;20705;-68
2022/06/15 07:18:12;;;;;;;2.83;2.63;;;21.90;69.40;;;;;;5058529;28;20226;-68
2022/06/15 07:20:38;;;;;;;2.77;2.57;;;22.00;69.40;;;;;;5053321;28;20223;-68
2022/06/15 07:23:03;;;;;;;4.90;2.57;;;22.10;69.90;;;;;;5061685;28;20678;-68
2022/06/15 07:25:30;;;;;;;2.80;2.60;;;22.20;70.60;;;;;;5059782;28;20231;-71
2022/06/15 07:27:56;;;;;;;3.47;2.70;;;22.30;69.60;;;;;;5074985;28;20218;-68
2022/06/15 07:30:26;;;;;;;3.80;3.20;;;22.40;69.80;;;;;;5064367;28;21016;-70
2022/06/15 07:32:53;;;;;;;3.37;2.57;;;22.50;69.90;;;;;;5070612;28;20215;-67
2022/06/15 07:35:31;;;;;;;3.73;3.33;;;22.60;69.80;;;;;;5066606;28;20460;-67
2022/06/15 07:37:57;;;;;;;6.47;2.40;;;22.70;69.50;;;;;;5068062;28;20460;-69
2022/06/15 07:40:23;;;;;;;3.20;2.90;;;22.80;69.50;;;;;;5067834;28;20453;-68
2022/06/15 07:42:51;;;;;;;3.10;2.80;;;22.90;69.80;;;;;;5080071;28;20211;-68
2022/06/15 07:45:18;;;;;;;3.27;2.97;;;23.10;69.50;;;;;;5061734;28;20454;-68
2022/06/15 07:50:29;;;;;;;3.77;3.30;;;23.20;69.70;;;;;;5074068;28;20444;-69
2022/06/15 07:52:55;;;;;;;3.33;3.03;;;23.30;69.60;;;;;;5078243;28;20521;-68
2022/06/15 07:55:25;;;;;;;7.30;3.47;;;23.40;69.60;;;;;;5062540;28;20960;-69
2022/06/15 07:57:51;;;;;;;3.50;3.20;;;23.60;69.90;;;;;;5080745;28;20214;-69
2022/06/15 08:00:19;;;;;;;5.40;3.00;;;23.70;69.50;;;;;;5065224;28;20448;-69
2022/06/15 08:02:44;;;;;;;3.80;2.97;;;23.80;69.10;;;;;;5067096;28;20518;-70
2022/06/15 08:05:10;;;;;;;4.83;3.00;;;23.80;69.20;;;;;;5071008;28;20445;-70
2022/06/15 08:07:36;;;;;;;2.87;2.67;;;23.90;69.30;;;;;;5069006;28;20215;-68
2022/06/15 08:10:03;;;;;;;3.50;3.10;;;24.00;69.60;;;;;;5075447;28;20631;-68
2022/06/15 08:12:29;;;;;;;6.83;3.00;;;24.10;69.30;;;;;;5055857;28;20449;-69
2022/06/15 08:14:58;;;;;;;2.90;2.70;;;24.20;69.10;;;;;;5060791;28;20453;-70
2022/06/15 08:17:27;;;;;;;4.03;3.73;;;24.30;69.00;;;;;;5070565;28;20309;-70
2022/06/15 08:20:00;;;;;;;3.20;2.90;;;24.40;69.10;;;;;;5063280;28;20730;-69
2022/06/15 08:22:26;;;;;;;8.70;3.17;;;24.60;69.10;;;;;;5064510;28;20520;-69
2022/06/15 08:24:53;;;;;;;4.70;3.33;;;24.60;68.50;;;;;;5055550;28;21101;-69
2022/06/15 08:27:22;;;;;;;3.10;2.90;;;24.70;68.70;;;;;;5067876;28;20471;-67
2022/06/15 08:29:49;;;;;;;6.73;3.37;;;24.80;69.00;;;;;;5049429;28;20445;-69
2022/06/15 08:32:17;;;;;;;3.17;2.87;;;24.90;68.80;;;;;;5071761;28;20785;-66
2022/06/15 08:34:44;;;;;;;5.40;3.20;;;25.00;68.10;;;;;;5064273;28;20464;-70
2022/06/15 08:37:14;;;;;;;3.53;2.97;;;25.10;68.40;;;;;;5062208;28;20470;-69
2022/06/15 08:39:40;;;;;;;3.00;2.80;;;25.10;68.30;;;;;;5065937;28;20475;-69
2022/06/15 08:42:15;;;;;;;3.50;3.00;;;25.20;68.20;;;;;;5075253;28;20981;-70
2022/06/15 08:44:58;;;;;;;3.40;3.10;;;25.30;68.20;;;;;;5061460;28;20215;-69
2022/06/15 08:47:47;;;;;;;5.30;3.50;;;25.40;67.40;;;;;;5054299;28;20596;-68
2022/06/15 08:50:29;;;;;;;3.40;3.20;;;25.50;67.30;;;;;;5068348;28;20464;-70
2022/06/15 08:53:12;;;;;;;3.40;3.20;;;25.60;66.80;;;;;;5055516;28;20460;-68
2022/06/15 08:55:58;;;;;;;3.63;3.33;;;25.70;66.90;;;;;;5058383;28;20530;-68
2022/06/15 08:58:46;;;;;;;4.13;3.87;;;25.80;66.50;;;;;;5063622;28;20453;-68
2022/06/15 09:01:37;;;;;;;3.47;3.17;;;25.90;66.80;;;;;;5072734;28;20459;-68
2022/06/15 09:04:25;;;;;;;5.90;3.60;;;26.20;66.30;;;;;;5068091;28;20536;-68
2022/06/15 09:07:16;;;;;;;3.80;3.50;;;26.30;65.30;;;;;;5061927;28;20301;-69
2022/06/15 09:09:52;;;;;;;2.93;2.70;;;26.40;65.20;;;;;;5070552;28;20210;-69
2022/06/15 09:12:50;;;;;;;4.93;3.40;;;26.40;65.00;;;;;;5064158;28;20668;-69
2022/06/15 09:15:18;;;;;;;5.97;3.50;;;26.40;63.10;;;;;;5058940;28;20530;-69
2022/06/15 09:17:46;;;;;;;4.47;3.50;;;26.40;64.30;;;;;;5072932;28;21057;-68
2022/06/15 09:20:20;;;;;;;3.67;3.37;;;26.40;64.70;;;;;;5085666;28;20300;-70
2022/06/15 09:22:57;;;;;;;4.20;3.73;;;26.60;64.30;;;;;;5066402;28;20807;-69
2022/06/15 09:25:30;;;;;;;3.60;3.30;;;26.80;63.20;;;;;;5062022;28;20223;-69
2022/06/15 09:28:01;;;;;;;4.20;3.80;;;26.90;63.60;;;;;;5065667;28;20738;-71
2022/06/15 09:30:31;;;;;;;4.07;3.77;;;26.90;63.60;;;;;;5067665;28;20222;-69
2022/06/15 09:33:18;;;;;;;4.20;3.90;;;26.80;63.40;;;;;;5085766;28;20229;-69
2022/06/15 09:35:50;;;;;;;4.73;3.77;;;27.00;63.90;;;;;;5057099;28;20695;-70
2022/06/15 09:38:16;;;;;;;4.70;3.40;;;27.20;64.30;;;;;;5077930;28;20222;-68
2022/06/15 09:40:42;;;;;;;6.97;3.20;;;27.40;63.50;;;;;;5070863;28;20300;-68
2022/06/15 09:43:29;;;;;;;3.15;2.95;;;27.50;62.70;;;;;;5075391;28;20246;-69
2022/06/15 09:46:02;;;;;;;5.38;3.30;;;27.70;62.90;;;;;;5063495;28;20284;-69
2022/06/15 09:48:40;;;;;;;4.95;4.07;;;27.80;63.20;;;;;;5058595;28;20233;-68
2022/06/15 09:51:14;;;;;;;4.13;3.83;;;27.90;63.00;;;;;;5064419;28;20211;-71
2022/06/15 09:53:59;;;;;;;7.80;3.60;;;27.90;62.70;;;;;;5072385;28;20228;-69
2022/06/15 09:56:25;;;;;;;4.03;3.63;;;28.00;62.80;;;;;;5060928;28;20704;-68
2022/06/15 09:59:06;;;;;;;6.82;3.95;;;28.10;62.60;;;;;;5058315;28;20213;-68
2022/06/15 10:01:36;;;;;;;4.47;3.30;;;28.20;62.60;;;;;;5081408;28;20243;-68
2022/06/15 10:04:04;;;;;;;3.70;3.30;;;28.20;62.10;;;;;;5064927;28;20304;-69
2022/06/15 10:06:46;;;;;;;4.07;3.67;;;28.20;62.20;;;;;;5062587;28;20220;-70
2022/06/15 10:09:16;;;;;;;5.93;3.95;;;28.40;62.50;;;;;;5046312;28;20213;-68
2022/06/15 10:11:49;;;;;;;5.43;3.72;;;28.60;61.80;;;;;;5054191;28;20674;-70
2022/06/15 10:14:31;;;;;;;4.85;3.58;;;28.70;61.60;;;;;;5083247;28;20216;-70
2022/06/15 10:17:01;;;;;;;3.60;3.30;;;28.80;61.00;;;;;;5090403;28;20275;-69
2022/06/15 10:19:31;;;;;;;4.00;3.70;;;28.80;61.00;;;;;;5080359;28;20222;-70
2022/06/15 10:22:01;;;;;;;4.40;4.00;;;28.70;60.40;;;;;;5061931;28;20213;-69
2022/06/15 10:24:39;;;;;;;4.03;3.72;;;28.80;61.40;;;;;;5063306;28;20213;-69
2022/06/15 10:27:20;;;;;;;5.45;3.92;;;28.90;60.70;;;;;;5056974;28;20229;-72
2022/06/15 10:29:58;;;;;;;4.00;3.70;;;28.90;60.60;;;;;;5058262;28;20229;-68
2022/06/15 10:32:24;;;;;;;4.43;3.42;;;29.00;61.00;;;;;;5062281;28;20232;-70
2022/06/15 10:34:54;;;;;;;6.13;3.60;;;29.10;61.10;;;;;;5076525;28;20222;-69
2022/06/15 10:37:29;;;;;;;3.72;3.42;;;29.30;60.50;;;;;;5071791;28;20318;-69
2022/06/15 10:40:03;;;;;;;5.30;4.40;;;29.40;60.70;;;;;;5053179;28;20258;-70
2022/06/15 10:42:41;;;;;;;3.38;3.17;;;29.50;60.60;;;;;;5073920;28;20220;-70
2022/06/15 10:45:08;;;;;;;3.90;3.60;;;29.70;59.70;;;;;;5058910;28;20237;-68
2022/06/15 10:47:42;;;;;;;4.47;3.85;;;29.80;59.40;;;;;;5057382;28;20639;-69
2022/06/15 10:50:26;;;;;;;4.00;3.60;;;29.90;59.20;;;;;;5059501;28;20276;-69
2022/06/15 10:53:04;;;;;;;3.60;3.10;;;30.00;59.50;;;;;;5074296;28;20223;-70
2022/06/15 11:02:08;;;;;;;4.05;3.63;;;29.90;59.30;;;;;;5053535;28;20237;-69
2022/06/15 11:04:48;;;;;;;3.75;3.40;;;30.00;59.30;;;;;;5056364;28;20748;-70
2022/06/15 11:07:23;;;;;;;4.15;3.75;;;30.00;59.30;;;;;;5066907;28;20277;-68
2022/06/15 11:09:54;;;;;;;5.30;4.07;;;30.30;59.20;;;;;;5062358;28;20239;-68
2022/06/15 11:12:21;;;;;;;3.80;3.50;;;30.40;59.20;;;;;;5065716;28;20238;-68
2022/06/15 11:14:51;;;;;;;4.13;3.55;;;30.50;58.90;;;;;;5061245;28;20227;-69
2022/06/15 11:20:18;;;;;;;5.88;4.07;;;30.80;58.50;;;;;;5074971;28;20230;-68
2022/06/15 11:22:47;;;;;;;5.22;4.00;;;30.90;58.30;;;;;;5064403;28;20590;-68
2022/06/15 11:25:17;;;;;;;4.97;4.47;;;30.80;58.40;;;;;;5056363;28;20224;-68
2022/06/15 11:27:51;;;;;;;4.45;4.03;;;30.80;58.50;;;;;;5071982;28;20240;-68
2022/06/15 11:30:25;;;;;;;4.38;3.97;;;30.80;58.80;;;;;;5074307;28;20250;-72
2022/06/15 11:33:23;;;;;;;7.30;4.35;;;31.00;58.60;;;;;;5066978;28;20232;-70
2022/06/15 11:35:54;;;;;;;8.73;3.42;;;31.10;58.50;;;;;;5062926;28;20249;-70
2022/06/15 11:38:35;;;;;;;4.95;4.57;;;31.20;58.10;;;;;;5071720;28;20663;-69
2022/06/15 11:41:13;;;;;;;6.00;5.50;;;31.30;57.70;;;;;;5056558;28;20247;-69
2022/06/15 11:43:44;;;;;;;3.60;3.30;;;31.40;57.00;;;;;;5053511;28;20225;-69
2022/06/15 11:46:24;;;;;;;4.13;3.83;;;31.50;57.10;;;;;;5057403;28;20246;-69
2022/06/15 11:49:09;;;;;;;4.07;3.70;;;31.60;57.20;;;;;;5068460;28;20231;-70
2022/06/15 11:51:58;;;;;;;3.70;3.40;;;31.70;56.50;;;;;;5050660;28;20237;-68
2022/06/15 11:54:34;;;;;;;3.85;3.55;;;31.80;56.20;;;;;;5060100;28;20246;-70
2022/06/15 11:57:35;;;;;;;4.00;3.70;;;31.90;56.00;;;;;;5055741;28;20651;-69
2022/06/15 12:00:28;;;;;;;3.97;3.78;;;31.90;56.40;;;;;;5051187;28;20243;-69
2022/06/15 12:03:10;;;;;;;3.90;3.70;;;32.00;56.60;;;;;;5064224;28;20231;-71
2022/06/15 12:05:44;;;;;;;4.10;3.80;;;31.80;55.60;;;;;;5062731;28;20301;-68
2022/06/15 12:08:30;;;;;;;3.75;3.42;;;31.70;55.80;;;;;;5060755;28;20231;-72
2022/06/15 12:14:12;;;;;;;3.80;3.50;;;31.90;56.30;;;;;;5065860;28;20216;-69
2022/06/15 12:17:14;;;;;;;3.97;3.67;;;32.00;56.10;;;;;;5065493;28;20331;-69
2022/06/15 12:19:43;;;;;;;3.55;3.25;;;32.00;56.30;;;;;;5059832;28;20698;-69
2022/06/15 12:22:28;;;;;;;4.00;3.75;;;32.20;56.30;;;;;;5071006;28;20227;-70
2022/06/15 12:25:07;;;;;;;4.20;3.83;;;32.30;56.30;;;;;;5055973;28;20229;-68
2022/06/15 12:28:09;;;;;;;4.35;3.95;;;32.40;56.00;;;;;;5057195;28;20259;-70
2022/06/15 12:31:02;;;;;;;4.40;3.90;;;32.50;56.30;;;;;;5069583;28;20247;-71
2022/06/15 12:33:33;;;;;;;3.92;3.63;;;32.60;56.40;;;;;;5074545;28;20258;-67
2022/06/15 12:36:12;;;;;;;5.32;4.93;;;32.60;55.60;;;;;;5051427;28;20238;-68
2022/06/15 12:38:55;;;;;;;6.25;3.70;;;32.70;55.00;;;;;;5059163;28;20273;-69
2022/06/15 12:44:27;;;;;;;3.95;3.65;;;32.70;55.40;;;;;;5066553;28;20231;-70
2022/06/15 12:46:54;;;;;;;3.33;3.13;;;32.80;55.00;;;;;;5058316;28;20321;-69
2022/06/15 12:49:42;;;;;;;5.35;4.85;;;33.00;55.20;;;;;;5076468;28;20232;-70
2022/06/15 12:52:08;;;;;;;3.95;3.67;;;33.10;54.70;;;;;;5063817;28;20276;-70
2022/06/15 12:54:39;;;;;;;4.20;3.80;;;33.20;54.80;;;;;;5066857;28;20237;-69
2022/06/15 12:57:27;;;;;;;3.92;3.63;;;33.30;54.50;;;;;;5053245;28;20236;-70
2022/06/15 13:00:06;;;;;;;4.10;3.85;;;33.30;54.50;;;;;;5070276;28;20699;-71
2022/06/15 13:03:04;;;;;;;3.63;3.42;;;33.20;54.40;;;;;;5044907;28;20292;-66
2022/06/15 13:05:32;;;;;;;5.03;3.42;;;33.30;54.60;;;;;;5058694;28;20238;-70
2022/06/15 13:08:16;;;;;;;4.57;4.10;;;33.30;54.60;;;;;;5067187;28;20283;-69
2022/06/15 13:10:54;;;;;;;3.63;3.42;;;33.40;53.60;;;;;;5066978;28;20223;-69
2022/06/15 13:13:31;;;;;;;4.22;4.03;;;33.50;54.60;;;;;;5072505;28;20779;-71
2022/06/15 13:16:08;;;;;;;3.58;3.25;;;33.50;54.20;;;;;;5064918;28;20267;-70
2022/06/15 13:18:43;;;;;;;3.50;3.20;;;33.60;53.60;;;;;;5069404;28;20313;-69
2022/06/15 13:21:09;;;;;;;3.40;3.20;;;33.60;54.00;;;;;;5064495;28;20627;-69
2022/06/15 13:23:39;;;;;;;3.40;3.20;;;33.70;53.90;;;;;;5055639;28;20223;-70
2022/06/15 13:26:12;;;;;;;3.60;3.30;;;33.70;53.70;;;;;;5070051;28;20242;-68
2022/06/15 13:29:05;;;;;;;4.20;3.58;;;33.60;53.70;;;;;;5058896;28;20235;-70
2022/06/15 13:31:55;;;;;;;3.70;3.40;;;33.60;53.40;;;;;;5062911;28;20244;-71
2022/06/15 13:34:33;;;;;;;4.78;4.35;;;33.60;53.60;;;;;;5085950;28;20227;-70
2022/06/15 13:37:23;;;;;;;5.60;3.65;;;33.60;52.50;;;;;;5065619;28;20258;-69